sensor_id;sensor_type;location;lat;lon;timestamp;pressure;altitude;pressure_sealevel;temperature;humidity
21100;BME280;10708;50.824;4.408;2022-09-09T00:00:06;99872.41;;;13.61;100.00
21100;BME280;10708;50.824;4.408;2022-09-09T00:05:16;99877.44;;;13.66;100.00
21100;BME280;10708;50.824;4.408;2022-09-09T00:10:25;99875.34;;;13.71;100.00
21100;BME280;10708;50.824;4.408;2022-09-09T00:15:36;99869.97;;;13.73;100.00
21100;BME280;10708;50.824;4.408;2022-09-09T00:20:48;99856.75;;;13.73;100.00
21100;BME280;10708;50.824;4.408;2022-09-09T00:25:59;99851.47;;;13.73;100.00
21100;BME280;10708;50.824;4.408;2022-09-09T00:31:12;99847.78;;;13.75;100.00
21100;BME280;10708;50.824;4.408;2022-09-09T00:36:18;99853.56;;;13.82;100.00
21100;BME280;10708;50.824;4.408;2022-09-09T00:41:34;99851.28;;;13.90;100.00
21100;BME280;10708;50.824;4.408;2022-09-09T00:46:56;99850.81;;;13.97;100.00
21100;BME280;10708;50.824;4.408;2022-09-09T00:52:11;99842.53;;;14.03;100.00
21100;BME280;10708;50.824;4.408;2022-09-09T00:57:25;99846.78;;;14.06;100.00
21100;BME280;10708;50.824;4.408;2022-09-09T01:02:35;99838.72;;;14.08;100.00
21100;BME280;10708;50.824;4.408;2022-09-09T01:07:45;99828.88;;;14.10;100.00
21100;BME280;10708;50.824;4.408;2022-09-09T01:12:51;99820.84;;;14.11;100.00
21100;BME280;10708;50.824;4.408;2022-09-09T01:17:58;99815.75;;;14.08;100.00
21100;BME280;10708;50.824;4.408;2022-09-09T01:23:19;99819.25;;;14.09;100.00
21100;BME280;10708;50.824;4.408;2022-09-09T01:28:29;99803.56;;;14.06;100.00
21100;BME280;10708;50.824;4.408;2022-09-09T01:33:32;99807.06;;;14.06;100.00
21100;BME280;10708;50.824;4.408;2022-09-09T01:38:35;99801.88;;;14.04;100.00
21100;BME280;10708;50.824;4.408;2022-09-09T01:43:39;99796.47;;;14.06;100.00
21100;BME280;10708;50.824;4.408;2022-09-09T01:48:43;99806.13;;;14.07;100.00
21100;BME280;10708;50.824;4.408;2022-09-09T01:53:46;99798.19;;;14.07;100.00
21100;BME280;10708;50.824;4.408;2022-09-09T01:59:00;99789.47;;;14.05;100.00
21100;BME280;10708;50.824;4.408;2022-09-09T02:04:15;99786.84;;;14.05;100.00
21100;BME280;10708;50.824;4.408;2022-09-09T02:09:23;99781.72;;;14.02;100.00
21100;BME280;10708;50.824;4.408;2022-09-09T02:14:30;99773.78;;;14.02;100.00
21100;BME280;10708;50.824;4.408;2022-09-09T02:19:36;99763.19;;;14.02;100.00
21100;BME280;10708;50.824;4.408;2022-09-09T02:24:39;99773.69;;;14.03;100.00
21100;BME280;10708;50.824;4.408;2022-09-09T02:29:43;99782.56;;;14.02;100.00
21100;BME280;10708;50.824;4.408;2022-09-09T02:34:49;99782.56;;;14.02;100.00
21100;BME280;10708;50.824;4.408;2022-09-09T02:39:54;99788.72;;;14.03;100.00
21100;BME280;10708;50.824;4.408;2022-09-09T02:44:58;99786.16;;;14.01;100.00
21100;BME280;10708;50.824;4.408;2022-09-09T02:50:09;99792.31;;;14.02;100.00
21100;BME280;10708;50.824;4.408;2022-09-09T02:55:17;99787.88;;;14.02;100.00
21100;BME280;10708;50.824;4.408;2022-09-09T03:00:24;99791.38;;;14.03;100.00
21100;BME280;10708;50.824;4.408;2022-09-09T03:05:27;99806.31;;;14.04;100.00
21100;BME280;10708;50.824;4.408;2022-09-09T03:10:29;99800.06;;;14.05;100.00
21100;BME280;10708;50.824;4.408;2022-09-09T03:15:33;99795.72;;;14.04;100.00
21100;BME280;10708;50.824;4.408;2022-09-09T03:20:35;99786.06;;;14.03;100.00
21100;BME280;10708;50.824;4.408;2022-09-09T03:25:37;99778.13;;;14.03;100.00
21100;BME280;10708;50.824;4.408;2022-09-09T03:30:41;99771.91;;;14.04;100.00
21100;BME280;10708;50.824;4.408;2022-09-09T03:35:45;99777.09;;;14.06;100.00
21100;BME280;10708;50.824;4.408;2022-09-09T03:40:52;99768.47;;;14.02;100.00
21100;BME280;10708;50.824;4.408;2022-09-09T03:45:57;99777.28;;;14.02;100.00
21100;BME280;10708;50.824;4.408;2022-09-09T03:50:59;99772.84;;;14.03;100.00
21100;BME280;10708;50.824;4.408;2022-09-09T03:56:04;99769.34;;;14.02;100.00
21100;BME280;10708;50.824;4.408;2022-09-09T04:01:10;99769.34;;;14.02;100.00
21100;BME280;10708;50.824;4.408;2022-09-09T04:06:14;99754.75;;;14.10;100.00
21100;BME280;10708;50.824;4.408;2022-09-09T04:11:18;99757.97;;;14.15;100.00
21100;BME280;10708;50.824;4.408;2022-09-09T04:16:22;99747.00;;;14.21;100.00
21100;BME280;10708;50.824;4.408;2022-09-09T04:21:24;99731.94;;;14.21;100.00
21100;BME280;10708;50.824;4.408;2022-09-09T04:26:26;99740.00;;;14.20;100.00
21100;BME280;10708;50.824;4.408;2022-09-09T04:31:30;99748.25;;;14.15;100.00
21100;BME280;10708;50.824;4.408;2022-09-09T04:36:32;99742.47;;;14.09;100.00
21100;BME280;10708;50.824;4.408;2022-09-09T04:41:35;99732.81;;;14.08;100.00
21100;BME280;10708;50.824;4.408;2022-09-09T04:46:39;99746.28;;;14.04;100.00
21100;BME280;10708;50.824;4.408;2022-09-09T04:51:42;99737.56;;;14.02;100.00
21100;BME280;10708;50.824;4.408;2022-09-09T04:56:44;99729.81;;;13.99;100.00
21100;BME280;10708;50.824;4.408;2022-09-09T05:01:48;99737.75;;;13.99;100.00
21100;BME280;10708;50.824;4.408;2022-09-09T05:06:51;99739.47;;;14.00;100.00
21100;BME280;10708;50.824;4.408;2022-09-09T05:11:53;99736.81;;;14.00;100.00
21100;BME280;10708;50.824;4.408;2022-09-09T05:16:56;99745.13;;;14.09;100.00
21100;BME280;10708;50.824;4.408;2022-09-09T05:21:59;99736.59;;;14.18;100.00
21100;BME280;10708;50.824;4.408;2022-09-09T05:27:02;99743.66;;;14.31;100.00
21100;BME280;10708;50.824;4.408;2022-09-09T05:32:06;99735.06;;;14.42;100.00
21100;BME280;10708;50.824;4.408;2022-09-09T05:37:09;99726.22;;;14.56;100.00
21100;BME280;10708;50.824;4.408;2022-09-09T05:42:11;99726.66;;;14.62;100.00
21100;BME280;10708;50.824;4.408;2022-09-09T05:47:14;99724.63;;;14.53;100.00
21100;BME280;10708;50.824;4.408;2022-09-09T05:52:18;99725.06;;;14.60;100.00
21100;BME280;10708;50.824;4.408;2022-09-09T05:57:20;99722.06;;;14.52;100.00
21100;BME280;10708;50.824;4.408;2022-09-09T06:02:24;99725.28;;;14.57;100.00
21100;BME280;10708;50.824;4.408;2022-09-09T06:07:26;99729.75;;;14.69;100.00
21100;BME280;10708;50.824;4.408;2022-09-09T06:12:28;99730.00;;;14.78;100.00
21100;BME280;10708;50.824;4.408;2022-09-09T06:17:32;99731.50;;;14.83;100.00
21100;BME280;10708;50.824;4.408;2022-09-09T06:22:35;99725.41;;;14.95;100.00
21100;BME280;10708;50.824;4.408;2022-09-09T06:27:37;99732.19;;;14.99;100.00
21100;BME280;10708;50.824;4.408;2022-09-09T06:32:41;99728.41;;;15.16;100.00
21100;BME280;10708;50.824;4.408;2022-09-09T06:37:44;99727.66;;;15.39;100.00
21100;BME280;10708;50.824;4.408;2022-09-09T06:42:49;99730.97;;;15.42;100.00
21100;BME280;10708;50.824;4.408;2022-09-09T06:47:55;99723.66;;;15.46;100.00
21100;BME280;10708;50.824;4.408;2022-09-09T06:52:58;99724.28;;;15.49;100.00
21100;BME280;10708;50.824;4.408;2022-09-09T06:58:00;99719.22;;;15.59;100.00
21100;BME280;10708;50.824;4.408;2022-09-09T07:03:04;99716.16;;;15.65;100.00
21100;BME280;10708;50.824;4.408;2022-09-09T07:08:07;99718.47;;;15.82;100.00
21100;BME280;10708;50.824;4.408;2022-09-09T07:13:09;99720.94;;;16.09;100.00
21100;BME280;10708;50.824;4.408;2022-09-09T07:18:13;99725.00;;;16.15;100.00
21100;BME280;10708;50.824;4.408;2022-09-09T07:23:15;99714.91;;;16.07;100.00
21100;BME280;10708;50.824;4.408;2022-09-09T07:28:17;99722.47;;;16.01;100.00
21100;BME280;10708;50.824;4.408;2022-09-09T07:33:21;99722.16;;;15.93;100.00
21100;BME280;10708;50.824;4.408;2022-09-09T07:38:23;99721.31;;;15.92;100.00
21100;BME280;10708;50.824;4.408;2022-09-09T07:43:26;99730.47;;;15.75;100.00
21100;BME280;10708;50.824;4.408;2022-09-09T07:48:29;99731.50;;;15.47;100.00
21100;BME280;10708;50.824;4.408;2022-09-09T07:53:32;99722.78;;;15.33;100.00
21100;BME280;10708;50.824;4.408;2022-09-09T07:58:35;99717.28;;;15.36;100.00
21100;BME280;10708;50.824;4.408;2022-09-09T08:03:40;99709.09;;;15.51;100.00
21100;BME280;10708;50.824;4.408;2022-09-09T08:08:51;99711.25;;;15.72;100.00
21100;BME280;10708;50.824;4.408;2022-09-09T08:13:54;99721.97;;;15.96;100.00
21100;BME280;10708;50.824;4.408;2022-09-09T08:18:58;99713.94;;;16.45;100.00
21100;BME280;10708;50.824;4.408;2022-09-09T08:24:01;99726.66;;;16.65;100.00
21100;BME280;10708;50.824;4.408;2022-09-09T08:29:05;99727.84;;;16.85;100.00
21100;BME280;10708;50.824;4.408;2022-09-09T08:34:10;99726.88;;;16.97;100.00
21100;BME280;10708;50.824;4.408;2022-09-09T08:39:14;99742.84;;;16.97;100.00
21100;BME280;10708;50.824;4.408;2022-09-09T08:44:23;99743.53;;;16.88;100.00
21100;BME280;10708;50.824;4.408;2022-09-09T08:49:47;99748.09;;;16.75;100.00
21100;BME280;10708;50.824;4.408;2022-09-09T08:54:57;99756.22;;;16.48;100.00
21100;BME280;10708;50.824;4.408;2022-09-09T09:00:01;99762.56;;;16.58;100.00
21100;BME280;10708;50.824;4.408;2022-09-09T09:05:15;99755.31;;;16.73;100.00
21100;BME280;10708;50.824;4.408;2022-09-09T09:10:31;99769.81;;;16.56;100.00
21100;BME280;10708;50.824;4.408;2022-09-09T09:15:37;99769.69;;;16.34;100.00
21100;BME280;10708;50.824;4.408;2022-09-09T09:20:49;99770.09;;;16.28;100.00
21100;BME280;10708;50.824;4.408;2022-09-09T09:25:57;99769.06;;;16.17;100.00
21100;BME280;10708;50.824;4.408;2022-09-09T09:31:04;99775.66;;;16.12;100.00
21100;BME280;10708;50.824;4.408;2022-09-09T09:36:09;99782.19;;;15.95;100.00
21100;BME280;10708;50.824;4.408;2022-09-09T09:41:11;99775.28;;;15.93;100.00
21100;BME280;10708;50.824;4.408;2022-09-09T09:46:20;99778.97;;;15.90;100.00
21100;BME280;10708;50.824;4.408;2022-09-09T09:51:26;99785.56;;;15.97;100.00
21100;BME280;10708;50.824;4.408;2022-09-09T09:56:29;99792.06;;;15.93;100.00
21100;BME280;10708;50.824;4.408;2022-09-09T10:01:33;99792.06;;;16.06;100.00
21100;BME280;10708;50.824;4.408;2022-09-09T10:06:37;99800.31;;;16.14;100.00
21100;BME280;10708;50.824;4.408;2022-09-09T10:11:45;99802.13;;;16.26;100.00
21100;BME280;10708;50.824;4.408;2022-09-09T10:17:03;99806.13;;;16.32;100.00
21100;BME280;10708;50.824;4.408;2022-09-09T10:22:25;99814.22;;;16.17;100.00
21100;BME280;10708;50.824;4.408;2022-09-09T10:27:33;99809.66;;;16.19;100.00
21100;BME280;10708;50.824;4.408;2022-09-09T10:32:45;99812.69;;;16.39;100.00
21100;BME280;10708;50.824;4.408;2022-09-09T10:38:03;99814.38;;;16.52;100.00
21100;BME280;10708;50.824;4.408;2022-09-09T10:43:15;99827.56;;;16.67;100.00
21100;BME280;10708;50.824;4.408;2022-09-09T10:48:28;99819.97;;;16.73;100.00
21100;BME280;10708;50.824;4.408;2022-09-09T10:53:39;99817.22;;;16.98;100.00
21100;BME280;10708;50.824;4.408;2022-09-09T10:58:47;99818.47;;;17.41;100.00
21100;BME280;10708;50.824;4.408;2022-09-09T11:03:54;99823.38;;;17.58;100.00
21100;BME280;10708;50.824;4.408;2022-09-09T11:09:02;99823.34;;;17.82;100.00
21100;BME280;10708;50.824;4.408;2022-09-09T11:14:12;99828.19;;;17.77;100.00
21100;BME280;10708;50.824;4.408;2022-09-09T11:19:19;99824.06;;;17.84;100.00
21100;BME280;10708;50.824;4.408;2022-09-09T11:24:27;99825.94;;;18.05;100.00
21100;BME280;10708;50.824;4.408;2022-09-09T11:35:24;99828.56;;;17.94;100.00
21100;BME280;10708;50.824;4.408;2022-09-09T11:40:35;99834.16;;;18.02;100.00
21100;BME280;10708;50.824;4.408;2022-09-09T11:45:37;99840.78;;;17.97;100.00
21100;BME280;10708;50.824;4.408;2022-09-09T11:50:40;99831.81;;;17.98;100.00
21100;BME280;10708;50.824;4.408;2022-09-09T11:55:44;99841.75;;;18.07;100.00
21100;BME280;10708;50.824;4.408;2022-09-09T12:00:48;99834.50;;;18.09;100.00
21100;BME280;10708;50.824;4.408;2022-09-09T12:05:51;99832.09;;;17.95;100.00
21100;BME280;10708;50.824;4.408;2022-09-09T12:10:58;99833.06;;;18.05;100.00
21100;BME280;10708;50.824;4.408;2022-09-09T12:16:03;99841.28;;;18.02;100.00
21100;BME280;10708;50.824;4.408;2022-09-09T12:21:10;99837.56;;;18.04;100.00
21100;BME280;10708;50.824;4.408;2022-09-09T12:26:32;99844.53;;;17.83;100.00
21100;BME280;10708;50.824;4.408;2022-09-09T12:31:43;99834.13;;;17.91;100.00
21100;BME280;10708;50.824;4.408;2022-09-09T12:36:52;99826.63;;;18.07;100.00
21100;BME280;10708;50.824;4.408;2022-09-09T12:41:58;99828.09;;;18.45;100.00
21100;BME280;10708;50.824;4.408;2022-09-09T12:47:02;99827.38;;;18.54;100.00
21100;BME280;10708;50.824;4.408;2022-09-09T12:52:07;99837.56;;;18.71;100.00
21100;BME280;10708;50.824;4.408;2022-09-09T12:57:13;99836.81;;;18.80;100.00
21100;BME280;10708;50.824;4.408;2022-09-09T13:02:19;99830.34;;;18.94;100.00
21100;BME280;10708;50.824;4.408;2022-09-09T13:07:22;99817.66;;;18.75;100.00
21100;BME280;10708;50.824;4.408;2022-09-09T13:12:27;99818.38;;;18.77;100.00
21100;BME280;10708;50.824;4.408;2022-09-09T13:17:29;99809.75;;;18.85;100.00
21100;BME280;10708;50.824;4.408;2022-09-09T13:22:35;99823.81;;;18.87;100.00
21100;BME280;10708;50.824;4.408;2022-09-09T13:27:41;99817.16;;;18.82;100.00
21100;BME280;10708;50.824;4.408;2022-09-09T13:32:43;99801.59;;;18.87;100.00
21100;BME280;10708;50.824;4.408;2022-09-09T13:37:45;99804.22;;;19.09;100.00
21100;BME280;10708;50.824;4.408;2022-09-09T13:42:51;99823.06;;;18.96;100.00
21100;BME280;10708;50.824;4.408;2022-09-09T13:47:55;99797.44;;;19.05;100.00
21100;BME280;10708;50.824;4.408;2022-09-09T13:52:58;99809.66;;;19.39;100.00
21100;BME280;10708;50.824;4.408;2022-09-09T13:58:03;99825.03;;;19.47;100.00
21100;BME280;10708;50.824;4.408;2022-09-09T14:03:06;99822.56;;;19.34;100.00
21100;BME280;10708;50.824;4.408;2022-09-09T14:08:16;99818.84;;;19.26;100.00
21100;BME280;10708;50.824;4.408;2022-09-09T14:13:23;99822.88;;;19.41;100.00
21100;BME280;10708;50.824;4.408;2022-09-09T14:18:25;99818.28;;;19.43;100.00
21100;BME280;10708;50.824;4.408;2022-09-09T14:23:27;99815.97;;;19.38;100.00
21100;BME280;10708;50.824;4.408;2022-09-09T14:28:31;99821.03;;;19.21;100.00
21100;BME280;10708;50.824;4.408;2022-09-09T14:33:35;99826.16;;;19.12;100.00
21100;BME280;10708;50.824;4.408;2022-09-09T14:38:38;99834.09;;;19.35;100.00
21100;BME280;10708;50.824;4.408;2022-09-09T14:43:43;99833.38;;;19.65;100.00
21100;BME280;10708;50.824;4.408;2022-09-09T14:48:46;99822.16;;;19.50;100.00
21100;BME280;10708;50.824;4.408;2022-09-09T14:53:51;99826.63;;;19.49;100.00
21100;BME280;10708;50.824;4.408;2022-09-09T14:58:57;99829.06;;;19.52;100.00
21100;BME280;10708;50.824;4.408;2022-09-09T15:04:03;99822.03;;;19.40;100.00
21100;BME280;10708;50.824;4.408;2022-09-09T15:09:05;99819.00;;;19.45;100.00
21100;BME280;10708;50.824;4.408;2022-09-09T15:14:09;99812.22;;;19.41;100.00
21100;BME280;10708;50.824;4.408;2022-09-09T15:19:12;99804.06;;;19.53;100.00
21100;BME280;10708;50.824;4.408;2022-09-09T15:24:17;99800.34;;;19.66;100.00
21100;BME280;10708;50.824;4.408;2022-09-09T15:29:22;99800.28;;;19.56;100.00
21100;BME280;10708;50.824;4.408;2022-09-09T15:34:24;99797.16;;;19.40;100.00
21100;BME280;10708;50.824;4.408;2022-09-09T15:39:30;99813.94;;;19.31;100.00
21100;BME280;10708;50.824;4.408;2022-09-09T15:44:40;99816.53;;;19.21;100.00
21100;BME280;10708;50.824;4.408;2022-09-09T15:49:43;99822.41;;;19.15;100.00
21100;BME280;10708;50.824;4.408;2022-09-09T15:54:46;99814.13;;;19.18;100.00
21100;BME280;10708;50.824;4.408;2022-09-09T15:59:49;99819.94;;;19.23;100.00
21100;BME280;10708;50.824;4.408;2022-09-09T16:04:52;99824.75;;;19.29;100.00
21100;BME280;10708;50.824;4.408;2022-09-09T16:09:54;99819.25;;;19.10;100.00
21100;BME280;10708;50.824;4.408;2022-09-09T16:14:58;99832.91;;;18.96;100.00
21100;BME280;10708;50.824;4.408;2022-09-09T16:20:01;99840.53;;;18.89;100.00
21100;BME280;10708;50.824;4.408;2022-09-09T16:25:04;99849.78;;;18.85;100.00
21100;BME280;10708;50.824;4.408;2022-09-09T16:30:09;99877.78;;;18.24;100.00
21100;BME280;10708;50.824;4.408;2022-09-09T16:35:11;99881.91;;;17.47;100.00
21100;BME280;10708;50.824;4.408;2022-09-09T16:40:14;99886.16;;;17.02;100.00
21100;BME280;10708;50.824;4.408;2022-09-09T16:45:19;99893.97;;;16.79;100.00
21100;BME280;10708;50.824;4.408;2022-09-09T16:50:22;99902.50;;;16.72;100.00
21100;BME280;10708;50.824;4.408;2022-09-09T16:55:25;99913.69;;;16.77;100.00
21100;BME280;10708;50.824;4.408;2022-09-09T17:00:28;99924.19;;;16.78;100.00
21100;BME280;10708;50.824;4.408;2022-09-09T17:05:31;99927.78;;;16.77;100.00
21100;BME280;10708;50.824;4.408;2022-09-09T17:10:33;99928.44;;;16.68;100.00
21100;BME280;10708;50.824;4.408;2022-09-09T17:15:40;99932.19;;;16.66;100.00
21100;BME280;10708;50.824;4.408;2022-09-09T17:20:44;99934.97;;;16.64;100.00
21100;BME280;10708;50.824;4.408;2022-09-09T17:25:55;99936.19;;;16.58;100.00
21100;BME280;10708;50.824;4.408;2022-09-09T17:31:03;99937.03;;;16.59;100.00
21100;BME280;10708;50.824;4.408;2022-09-09T17:36:09;99933.25;;;16.63;100.00
21100;BME280;10708;50.824;4.408;2022-09-09T17:41:14;99938.97;;;16.57;100.00
21100;BME280;10708;50.824;4.408;2022-09-09T17:46:20;99961.41;;;16.53;100.00
21100;BME280;10708;50.824;4.408;2022-09-09T17:51:24;99960.25;;;16.44;100.00
21100;BME280;10708;50.824;4.408;2022-09-09T17:56:30;99960.25;;;16.44;100.00
21100;BME280;10708;50.824;4.408;2022-09-09T18:01:35;99970.00;;;16.31;100.00
21100;BME280;10708;50.824;4.408;2022-09-09T18:06:40;99969.38;;;16.28;100.00
21100;BME280;10708;50.824;4.408;2022-09-09T18:11:45;99969.69;;;16.23;100.00
21100;BME280;10708;50.824;4.408;2022-09-09T18:16:51;99977.97;;;16.18;100.00
21100;BME280;10708;50.824;4.408;2022-09-09T18:21:54;99973.28;;;16.09;100.00
21100;BME280;10708;50.824;4.408;2022-09-09T18:26:56;99968.38;;;16.03;100.00
21100;BME280;10708;50.824;4.408;2022-09-09T18:31:59;99977.50;;;15.99;100.00
21100;BME280;10708;50.824;4.408;2022-09-09T18:37:02;99981.25;;;15.97;100.00
21100;BME280;10708;50.824;4.408;2022-09-09T18:42:04;99990.44;;;15.91;100.00
21100;BME280;10708;50.824;4.408;2022-09-09T18:47:08;99998.53;;;15.90;100.00
21100;BME280;10708;50.824;4.408;2022-09-09T18:52:10;100004.16;;;15.85;100.00
21100;BME280;10708;50.824;4.408;2022-09-09T18:57:13;100005.38;;;15.79;100.00
21100;BME280;10708;50.824;4.408;2022-09-09T19:02:16;100006.75;;;15.72;100.00
21100;BME280;10708;50.824;4.408;2022-09-09T19:07:19;100016.63;;;15.70;100.00
21100;BME280;10708;50.824;4.408;2022-09-09T19:12:22;100019.47;;;15.67;100.00
21100;BME280;10708;50.824;4.408;2022-09-09T19:17:26;100025.84;;;15.65;100.00
21100;BME280;10708;50.824;4.408;2022-09-09T19:22:30;100027.66;;;15.64;100.00
21100;BME280;10708;50.824;4.408;2022-09-09T19:27:32;100031.44;;;15.60;100.00
21100;BME280;10708;50.824;4.408;2022-09-09T19:32:36;100049.91;;;15.62;100.00
21100;BME280;10708;50.824;4.408;2022-09-09T19:37:38;100065.00;;;15.61;100.00
21100;BME280;10708;50.824;4.408;2022-09-09T19:42:40;100079.56;;;15.68;100.00
21100;BME280;10708;50.824;4.408;2022-09-09T19:47:45;100087.75;;;15.65;100.00
21100;BME280;10708;50.824;4.408;2022-09-09T19:52:47;100084.50;;;15.60;100.00
21100;BME280;10708;50.824;4.408;2022-09-09T19:57:49;100092.69;;;15.57;100.00
21100;BME280;10708;50.824;4.408;2022-09-09T20:02:53;100091.63;;;15.45;100.00
21100;BME280;10708;50.824;4.408;2022-09-09T20:08:09;100096.38;;;15.40;100.00
21100;BME280;10708;50.824;4.408;2022-09-09T20:13:12;100091.91;;;15.41;100.00
21100;BME280;10708;50.824;4.408;2022-09-09T20:18:14;100087.75;;;15.37;100.00
21100;BME280;10708;50.824;4.408;2022-09-09T20:23:18;100085.84;;;15.39;100.00
21100;BME280;10708;50.824;4.408;2022-09-09T20:28:20;100086.16;;;15.34;100.00
21100;BME280;10708;50.824;4.408;2022-09-09T20:33:23;100092.41;;;15.33;100.00
21100;BME280;10708;50.824;4.408;2022-09-09T20:38:26;100084.25;;;15.36;100.00
21100;BME280;10708;50.824;4.408;2022-09-09T20:43:29;100084.44;;;15.33;100.00
21100;BME280;10708;50.824;4.408;2022-09-09T20:48:31;100094.75;;;15.38;100.00
21100;BME280;10708;50.824;4.408;2022-09-09T20:53:36;100094.75;;;15.38;100.00
21100;BME280;10708;50.824;4.408;2022-09-09T20:58:39;100103.69;;;15.37;100.00
21100;BME280;10708;50.824;4.408;2022-09-09T21:03:41;100097.41;;;15.38;100.00
21100;BME280;10708;50.824;4.408;2022-09-09T21:08:45;100102.53;;;15.41;100.00
21100;BME280;10708;50.824;4.408;2022-09-09T21:13:48;100104.31;;;15.40;100.00
21100;BME280;10708;50.824;4.408;2022-09-09T21:18:51;100098.16;;;15.40;100.00
21100;BME280;10708;50.824;4.408;2022-09-09T21:23:56;100093.06;;;15.37;100.00
21100;BME280;10708;50.824;4.408;2022-09-09T21:29:00;100085.38;;;15.32;100.00
21100;BME280;10708;50.824;4.408;2022-09-09T21:34:02;100086.72;;;15.25;100.00
21100;BME280;10708;50.824;4.408;2022-09-09T21:39:06;100093.06;;;15.23;100.00
21100;BME280;10708;50.824;4.408;2022-09-09T21:44:08;100089.56;;;15.22;100.00
21100;BME280;10708;50.824;4.408;2022-09-09T21:49:11;100087.47;;;15.27;100.00
21100;BME280;10708;50.824;4.408;2022-09-09T21:54:15;100081.59;;;15.22;100.00
21100;BME280;10708;50.824;4.408;2022-09-09T21:59:18;100090.41;;;15.23;100.00
21100;BME280;10708;50.824;4.408;2022-09-09T22:04:20;100080.84;;;15.20;100.00
21100;BME280;10708;50.824;4.408;2022-09-09T22:09:24;100077.25;;;15.21;100.00
21100;BME280;10708;50.824;4.408;2022-09-09T22:14:26;100082.63;;;15.20;100.00
21100;BME280;10708;50.824;4.408;2022-09-09T22:19:29;100079.22;;;15.18;100.00
21100;BME280;10708;50.824;4.408;2022-09-09T22:24:32;100085.19;;;15.21;100.00
21100;BME280;10708;50.824;4.408;2022-09-09T22:29:38;100085.88;;;15.25;100.00
21100;BME280;10708;50.824;4.408;2022-09-09T22:34:40;100079.63;;;15.26;100.00
21100;BME280;10708;50.824;4.408;2022-09-09T22:39:43;100085.28;;;15.34;100.00
21100;BME280;10708;50.824;4.408;2022-09-09T22:44:46;100083.28;;;15.37;100.00
21100;BME280;10708;50.824;4.408;2022-09-09T22:49:48;100090.28;;;15.38;100.00
21100;BME280;10708;50.824;4.408;2022-09-09T22:54:51;100088.13;;;15.45;100.00
21100;BME280;10708;50.824;4.408;2022-09-09T22:59:53;100101.41;;;15.45;100.00
21100;BME280;10708;50.824;4.408;2022-09-09T23:04:56;100094.06;;;15.48;100.00
21100;BME280;10708;50.824;4.408;2022-09-09T23:10:00;100102.78;;;15.50;100.00
21100;BME280;10708;50.824;4.408;2022-09-09T23:15:05;100101.94;;;15.50;100.00
21100;BME280;10708;50.824;4.408;2022-09-09T23:20:09;100093.78;;;15.53;100.00
21100;BME280;10708;50.824;4.408;2022-09-09T23:25:13;100095.69;;;15.51;100.00
21100;BME280;10708;50.824;4.408;2022-09-09T23:30:15;100092.28;;;15.49;100.00
21100;BME280;10708;50.824;4.408;2022-09-09T23:35:18;100086.31;;;15.45;100.00
21100;BME280;10708;50.824;4.408;2022-09-09T23:40:21;100095.16;;;15.46;100.00
21100;BME280;10708;50.824;4.408;2022-09-09T23:45:23;100096.72;;;15.48;100.00
21100;BME280;10708;50.824;4.408;2022-09-09T23:50:26;100089.72;;;15.47;100.00
21100;BME280;10708;50.824;4.408;2022-09-09T23:55:29;100095.25;;;15.44;100.00
